createdAt,value
2024-03-16T00:02:04.144Z,11.57
2024-03-16T00:05:07.722Z,10.35
2024-03-16T00:08:10.963Z,11.27
2024-03-16T00:11:14.185Z,11.85
2024-03-16T00:14:17.389Z,11.93
2024-03-16T00:17:22.120Z,12.00
2024-03-16T00:20:27.128Z,11.75
2024-03-16T00:23:31.116Z,11.82
2024-03-16T00:26:34.333Z,12.57
2024-03-16T00:29:38.036Z,11.83
2024-03-16T00:32:42.006Z,12.03
2024-03-16T00:35:45.439Z,12.88
2024-03-16T00:38:51.342Z,11.63
2024-03-16T00:41:55.206Z,12.43
2024-03-16T00:44:58.613Z,13.33
2024-03-16T00:48:05.469Z,12.00
2024-03-16T00:51:08.828Z,13.02
2024-03-16T00:54:12.856Z,12.68
2024-03-16T00:57:16.076Z,13.18
2024-03-16T01:00:19.686Z,12.90
2024-03-16T01:03:22.978Z,13.20
2024-03-16T01:06:26.556Z,13.90
2024-03-16T01:09:30.644Z,13.65
2024-03-16T01:12:34.982Z,13.57
2024-03-16T01:15:38.271Z,14.30
2024-03-16T01:18:41.685Z,13.50
2024-03-16T01:21:44.996Z,14.60
2024-03-16T01:24:48.364Z,13.35
2024-03-16T01:27:51.555Z,12.95
2024-03-16T01:30:54.769Z,13.77
2024-03-16T01:33:58.176Z,13.43
2024-03-16T01:37:01.493Z,13.15
2024-03-16T01:40:09.573Z,14.05
2024-03-16T01:43:17.189Z,13.45
2024-03-16T01:46:20.781Z,14.20
2024-03-16T01:49:24.073Z,14.50
2024-03-16T01:52:27.349Z,14.27
2024-03-16T01:55:44.431Z,15.07
2024-03-16T01:58:49.808Z,15.90
2024-03-16T02:01:53.607Z,14.23
2024-03-16T02:04:56.789Z,15.73
2024-03-16T02:08:00.664Z,15.45
2024-03-16T02:11:04.083Z,17.23
2024-03-16T02:14:08.577Z,16.33
2024-03-16T02:17:12.298Z,16.07
2024-03-16T02:20:17.072Z,17.10
2024-03-16T02:23:21.165Z,16.35
2024-03-16T02:26:25.265Z,17.25
2024-03-16T02:29:29.554Z,16.67
2024-03-16T02:32:32.803Z,18.33
2024-03-16T02:35:36.234Z,18.37
2024-03-16T02:38:41.738Z,17.70
2024-03-16T02:41:45.009Z,18.05
2024-03-16T02:44:48.333Z,17.48
2024-03-16T02:47:51.501Z,17.73
2024-03-16T02:50:54.755Z,17.80
2024-03-16T02:53:58.196Z,18.35
2024-03-16T02:57:01.383Z,18.40
2024-03-16T03:00:08.769Z,17.58
2024-03-16T03:03:13.224Z,17.03
2024-03-16T03:06:16.396Z,18.30
2024-03-16T03:09:21.626Z,17.90
2024-03-16T03:12:25.741Z,17.42
2024-03-16T03:15:29.223Z,18.35
2024-03-16T03:18:32.496Z,16.37
2024-03-16T03:21:35.940Z,18.03
2024-03-16T03:24:39.227Z,17.08
2024-03-16T03:27:42.501Z,16.55
2024-03-16T03:30:45.806Z,18.17
2024-03-16T03:33:49.059Z,17.27
2024-03-16T03:36:52.318Z,17.33
2024-03-16T03:39:55.544Z,17.95
2024-03-16T03:43:01.441Z,16.80
2024-03-16T03:46:06.184Z,16.75
2024-03-16T03:49:27.227Z,17.50
2024-03-16T03:52:31.198Z,16.80
2024-03-16T03:55:34.355Z,17.40
2024-03-16T03:58:37.679Z,16.85
2024-03-16T04:01:40.862Z,14.55
2024-03-16T04:04:44.248Z,16.77
2024-03-16T04:07:47.464Z,14.73
2024-03-16T04:10:50.789Z,15.07
2024-03-16T04:13:53.968Z,15.15
2024-03-16T04:16:57.221Z,14.38
2024-03-16T04:20:00.433Z,13.27
2024-03-16T04:23:03.688Z,14.57
2024-03-16T04:26:07.023Z,14.30
2024-03-16T04:29:10.175Z,13.25
2024-03-16T04:32:13.341Z,13.90
2024-03-16T04:35:16.590Z,13.93
2024-03-16T04:38:19.839Z,13.17
2024-03-16T04:41:22.993Z,13.85
2024-03-16T04:44:26.197Z,13.13
2024-03-16T04:47:29.574Z,15.52
2024-03-16T04:50:33.141Z,14.23
2024-03-16T04:53:36.445Z,14.73
2024-03-16T04:56:39.600Z,13.73
2024-03-16T04:59:42.829Z,14.98
2024-03-16T05:02:45.992Z,15.10
2024-03-16T05:05:49.205Z,13.27
2024-03-16T05:08:52.657Z,13.37
2024-03-16T05:11:56.055Z,13.77
2024-03-16T05:15:00.007Z,12.82
2024-03-16T05:18:03.253Z,12.57
2024-03-16T05:21:07.814Z,13.57
2024-03-16T05:24:11.236Z,12.63
2024-03-16T05:27:16.358Z,12.20
2024-03-16T05:30:19.550Z,12.45
2024-03-16T05:33:22.764Z,12.60
2024-03-16T05:36:26.058Z,13.07
2024-03-16T05:39:29.929Z,12.50
2024-03-16T05:42:35.859Z,12.05
2024-03-16T05:45:39.350Z,12.70
2024-03-16T05:48:42.909Z,12.95
2024-03-16T05:51:46.099Z,11.97
2024-03-16T05:54:49.418Z,12.23
2024-03-16T05:57:52.817Z,11.00
2024-03-16T06:00:57.014Z,12.30
2024-03-16T06:04:00.590Z,11.95
2024-03-16T06:07:04.384Z,10.73
2024-03-16T06:10:10.791Z,11.57
2024-03-16T06:13:14.694Z,11.23
2024-03-16T06:16:17.952Z,13.57
2024-03-16T06:19:21.278Z,12.60
2024-03-16T06:22:24.536Z,11.63
2024-03-16T06:25:30.735Z,12.00
2024-03-16T06:28:37.375Z,11.73
2024-03-16T06:31:42.497Z,12.45
2024-03-16T06:34:45.741Z,11.70
2024-03-16T06:37:48.953Z,11.37
2024-03-16T06:40:52.194Z,12.33
2024-03-16T06:43:55.384Z,11.52
2024-03-16T06:46:58.510Z,12.48
2024-03-16T06:50:01.709Z,12.15
2024-03-16T06:53:05.184Z,12.10
2024-03-16T06:56:10.798Z,11.90
2024-03-16T06:59:16.229Z,11.07
2024-03-16T07:02:19.519Z,12.18
2024-03-16T07:05:22.792Z,12.07
2024-03-16T07:08:26.106Z,9.47
2024-03-16T07:11:30.013Z,11.83
2024-03-16T07:14:34.601Z,12.70
2024-03-16T07:17:37.878Z,12.40
2024-03-16T07:20:41.162Z,13.05
2024-03-16T07:23:45.099Z,11.50
2024-03-16T07:26:48.416Z,13.23
2024-03-16T07:29:52.486Z,12.30
2024-03-16T07:32:57.387Z,12.10
2024-03-16T07:36:00.692Z,12.27
2024-03-16T07:39:09.753Z,11.70
2024-03-16T07:42:13.008Z,12.30
2024-03-16T07:45:17.122Z,11.18
2024-03-16T07:48:20.440Z,11.77
2024-03-16T07:51:29.935Z,11.73
2024-03-16T07:54:33.213Z,11.93
2024-03-16T07:57:36.485Z,11.40
2024-03-16T08:00:39.805Z,10.65
2024-03-16T08:03:43.438Z,10.30
2024-03-16T08:06:47.080Z,11.27
2024-03-16T08:09:50.297Z,10.40
2024-03-16T08:12:53.594Z,11.23
2024-03-16T08:15:57.250Z,11.57
2024-03-16T08:19:00.510Z,11.32
2024-03-16T08:22:04.242Z,11.90
2024-03-16T08:25:08.562Z,11.87
2024-03-16T08:28:11.840Z,10.77
2024-03-16T08:31:15.143Z,11.05
2024-03-16T08:34:18.460Z,10.25
2024-03-16T08:37:21.699Z,11.25
2024-03-16T08:40:25.149Z,11.73
2024-03-16T08:43:28.759Z,10.90
2024-03-16T08:46:32.242Z,10.35
2024-03-16T08:49:36.141Z,11.30
2024-03-16T08:52:39.676Z,11.50
2024-03-16T08:55:43.326Z,10.50
2024-03-16T08:58:47.665Z,9.83
2024-03-16T09:01:51.091Z,10.82
2024-03-16T09:04:56.889Z,10.95
2024-03-16T09:08:00.504Z,9.70
2024-03-16T09:11:03.859Z,10.70
2024-03-16T09:14:07.810Z,10.20
2024-03-16T09:17:11.232Z,11.27
2024-03-16T09:20:14.963Z,11.15
2024-03-16T09:23:18.221Z,11.63
2024-03-16T09:26:21.616Z,12.27
2024-03-16T09:29:25.183Z,11.93
2024-03-16T09:32:28.388Z,11.32
2024-03-16T09:35:31.937Z,10.48
2024-03-16T09:38:36.002Z,11.32
2024-03-16T09:41:40.809Z,11.87
